createdAt,value
2022-09-05T00:00:20.462Z,20.85
2022-09-05T00:02:58.480Z,20.86
2022-09-05T00:05:44.213Z,20.81
2022-09-05T00:08:36.893Z,20.89
2022-09-05T00:11:40.810Z,20.88
2022-09-05T00:14:36.789Z,20.88
2022-09-05T00:17:24.075Z,20.80
2022-09-05T00:24:18.846Z,20.81
2022-09-05T00:24:35.462Z,20.76
2022-09-05T00:26:08.737Z,20.62
2022-09-05T00:28:38.422Z,20.56
2022-09-05T00:31:55.708Z,20.52
2022-09-05T00:34:47.907Z,20.56
2022-09-05T00:37:34.794Z,20.53
2022-09-05T00:40:19.238Z,20.56
2022-09-05T00:42:50.468Z,20.50
2022-09-05T00:45:27.874Z,20.45
2022-09-05T00:48:01.179Z,20.43
2022-09-05T00:50:57.157Z,20.37
2022-09-05T00:54:10.159Z,20.37
2022-09-05T00:56:55.432Z,20.32
2022-09-05T00:59:59.016Z,20.25
2022-09-05T01:02:51.268Z,20.16
2022-09-05T01:05:56.375Z,20.14
2022-09-05T01:08:54.943Z,20.08
2022-09-05T01:11:28.313Z,20.02
2022-09-05T01:14:12.946Z,19.97
2022-09-05T01:17:02.006Z,20.00
2022-09-05T01:19:46.800Z,20.01
2022-09-05T01:22:43.974Z,19.97
2022-09-05T01:25:28.082Z,19.94
2022-09-05T01:28:55.015Z,19.89
2022-09-05T01:30:55.884Z,19.66
2022-09-05T01:33:43.712Z,19.83
2022-09-05T01:36:49.358Z,19.74
2022-09-05T01:40:11.042Z,19.49
2022-09-05T01:42:37.143Z,19.50
2022-09-05T01:45:15.794Z,19.54
2022-09-05T01:48:04.807Z,19.57
2022-09-05T01:50:43.934Z,19.62
2022-09-05T01:53:26.968Z,19.68
2022-09-05T01:56:02.482Z,19.63
2022-09-05T01:59:09.701Z,19.48
2022-09-05T02:01:57.440Z,19.46
2022-09-05T02:04:58.071Z,19.43
2022-09-05T02:07:59.003Z,19.41
2022-09-05T02:11:01.954Z,19.43
2022-09-05T02:13:34.462Z,19.50
2022-09-05T02:16:19.438Z,19.39
2022-09-05T02:18:55.384Z,19.43
2022-09-05T02:21:56.039Z,19.35
2022-09-05T02:24:33.137Z,19.40
2022-09-05T02:27:43.618Z,19.36
2022-09-05T02:30:22.016Z,19.32
2022-09-05T02:33:01.826Z,19.27
2022-09-05T02:35:43.515Z,19.19
2022-09-05T02:42:23.967Z,19.25
2022-09-05T02:45:01.138Z,19.27
2022-09-05T02:45:06.000Z,19.18
2022-09-05T02:47:19.543Z,19.15
2022-09-05T02:52:36.687Z,19.12
2022-09-05T02:57:28.164Z,19.18
2022-09-05T02:57:40.241Z,19.23
2022-09-05T02:59:11.681Z,19.21
2022-09-05T03:02:25.184Z,19.18
2022-09-05T03:05:05.079Z,19.17
2022-09-05T03:07:58.155Z,19.23
2022-09-05T03:11:02.278Z,19.27
2022-09-05T03:13:55.503Z,19.10
2022-09-05T03:16:52.772Z,18.91
2022-09-05T03:19:57.395Z,18.88
2022-09-05T03:22:43.064Z,18.81
2022-09-05T03:25:43.284Z,18.88
2022-09-05T03:28:57.548Z,18.98
2022-09-05T03:31:52.037Z,18.99
2022-09-05T03:34:30.560Z,19.03
2022-09-05T03:37:33.761Z,19.02
2022-09-05T03:40:15.967Z,19.02
2022-09-05T03:43:15.477Z,19.01
2022-09-05T03:46:19.663Z,18.96
2022-09-05T03:49:36.785Z,18.98
2022-09-05T03:57:11.161Z,18.99
2022-09-05T03:57:21.028Z,18.98
2022-09-05T03:58:55.372Z,18.84
2022-09-05T04:03:20.278Z,18.68
2022-09-05T04:08:13.653Z,18.69
2022-09-05T04:08:19.337Z,18.69
2022-09-05T04:10:26.553Z,18.76
2022-09-05T04:12:59.104Z,18.70
2022-09-05T04:15:43.118Z,18.73
2022-09-05T04:18:25.693Z,18.74
2022-09-05T04:21:10.447Z,18.69
2022-09-05T04:23:58.859Z,18.71
2022-09-05T04:26:50.241Z,18.74
2022-09-05T04:29:54.432Z,18.69
2022-09-05T04:32:29.685Z,18.69
2022-09-05T04:35:30.896Z,18.72
2022-09-05T04:38:18.152Z,18.65
2022-09-05T04:40:58.721Z,18.64
2022-09-05T04:43:32.003Z,18.58
2022-09-05T04:46:07.680Z,18.51
2022-09-05T04:48:39.051Z,18.48
2022-09-05T04:51:21.936Z,18.52
2022-09-05T04:54:13.123Z,18.46
2022-09-05T04:56:44.551Z,18.31
2022-09-05T05:02:12.747Z,18.40
2022-09-05T05:06:12.052Z,18.42
2022-09-05T05:06:17.347Z,18.39
2022-09-05T05:08:39.131Z,18.40
2022-09-05T05:17:58.896Z,18.25
2022-09-05T05:18:01.868Z,18.24
2022-09-05T05:18:09.597Z,18.25
2022-09-05T05:20:42.289Z,18.10
2022-09-05T05:23:29.019Z,18.15
2022-09-05T05:26:00.125Z,18.14
2022-09-05T05:28:52.298Z,17.98
2022-09-05T05:31:44.543Z,18.05
2022-09-05T05:34:24.398Z,18.16
2022-09-05T05:37:00.550Z,18.29
2022-09-05T05:39:33.847Z,18.32
2022-09-05T05:42:20.994Z,18.28
2022-09-05T05:44:53.904Z,18.28
2022-09-05T05:47:36.023Z,18.30
2022-09-05T05:50:11.736Z,18.37
2022-09-05T05:52:44.052Z,18.40
2022-09-05T05:55:52.230Z,18.49
2022-09-05T05:58:19.530Z,18.64
2022-09-05T06:00:55.261Z,18.77
2022-09-05T06:03:54.425Z,18.87
2022-09-05T06:06:36.190Z,19.00
2022-09-05T06:14:50.494Z,19.02
2022-09-05T06:14:55.518Z,19.23
2022-09-05T06:16:12.972Z,19.34
2022-09-05T06:19:21.673Z,19.46
2022-09-05T06:22:22.386Z,19.57
2022-09-05T06:25:16.998Z,19.65
2022-09-05T06:28:27.579Z,19.73
2022-09-05T06:31:29.520Z,19.74
2022-09-05T06:34:33.368Z,19.92
2022-09-05T06:37:27.015Z,19.97
2022-09-05T06:40:23.878Z,20.12
2022-09-05T06:43:00.110Z,20.20
2022-09-05T06:45:40.057Z,20.21
2022-09-05T06:48:44.203Z,20.28
2022-09-05T06:51:33.508Z,20.46
2022-09-05T06:54:25.642Z,20.68
2022-09-05T06:57:13.294Z,20.82
2022-09-05T07:00:04.970Z,20.91
2022-09-05T07:02:59.930Z,21.00
2022-09-05T07:05:39.612Z,21.12
2022-09-05T07:08:35.921Z,21.26
2022-09-05T07:11:30.083Z,21.34
2022-09-05T07:14:05.105Z,21.43
2022-09-05T07:16:47.706Z,21.50
2022-09-05T07:19:25.539Z,21.63
2022-09-05T07:22:01.083Z,21.72
2022-09-05T07:24:53.379Z,21.73
2022-09-05T07:28:29.104Z,21.85
2022-09-05T07:30:39.697Z,22.15
2022-09-05T07:33:07.042Z,22.21
2022-09-05T07:35:42.199Z,22.28
2022-09-05T07:38:14.868Z,22.43
2022-09-05T07:40:50.826Z,22.54
2022-09-05T07:43:27.074Z,22.61
2022-09-05T07:46:03.212Z,22.77
2022-09-05T07:48:36.138Z,22.87
2022-09-05T07:56:46.167Z,22.93
2022-09-05T07:56:49.253Z,22.96
2022-09-05T08:00:05.261Z,23.20
2022-09-05T08:02:32.045Z,23.40
2022-09-05T08:05:06.550Z,23.58
2022-09-05T08:07:46.878Z,23.75
2022-09-05T08:11:23.492Z,23.99
2022-09-05T08:13:46.522Z,24.29
2022-09-05T08:16:24.647Z,24.38
2022-09-05T08:19:13.972Z,24.53
2022-09-05T08:21:46.420Z,24.73
2022-09-05T08:24:30.152Z,24.87
2022-09-05T08:27:16.436Z,24.93
2022-09-05T08:30:24.403Z,24.93
2022-09-05T08:33:10.619Z,25.03
2022-09-05T08:36:19.505Z,25.24
2022-09-05T08:38:46.459Z,25.38
2022-09-05T08:41:43.182Z,25.26
2022-09-05T08:46:43.692Z,25.37
2022-09-05T08:47:41.740Z,25.45
2022-09-05T08:50:35.177Z,25.69
2022-09-05T08:53:26.238Z,25.90
2022-09-05T08:56:27.500Z,26.03
2022-09-05T08:59:27.976Z,26.17
2022-09-05T09:02:45.524Z,26.14
2022-09-05T09:05:53.275Z,26.17
2022-09-05T09:08:55.907Z,26.22
2022-09-05T09:11:38.786Z,26.48
2022-09-05T09:14:38.107Z,26.58
2022-09-05T09:17:34.003Z,26.77
2022-09-05T09:20:15.495Z,26.61
2022-09-05T09:22:56.380Z,26.88
2022-09-05T09:25:33.215Z,26.92
2022-09-05T09:28:47.551Z,27.12
2022-09-05T09:31:20.695Z,27.38
2022-09-05T09:34:16.108Z,27.51
2022-09-05T09:37:15.042Z,27.57
2022-09-05T09:40:18.980Z,27.64
2022-09-05T09:43:06.899Z,27.81
2022-09-05T09:46:09.875Z,27.99
2022-09-05T09:48:45.554Z,28.03
2022-09-05T09:51:45.949Z,28.12
2022-09-05T09:54:18.810Z,28.28
2022-09-05T09:57:17.440Z,28.35
2022-09-05T09:59:59.544Z,28.44
2022-09-05T10:08:44.395Z,28.53
2022-09-05T10:10:44.034Z,28.61
2022-09-05T10:10:50.966Z,28.72
2022-09-05T10:13:08.122Z,28.74
2022-09-05T10:15:56.168Z,28.85
2022-09-05T10:18:35.852Z,29.02
2022-09-05T10:21:24.456Z,29.10
2022-09-05T10:24:12.859Z,29.30
2022-09-05T10:27:04.328Z,29.44
2022-09-05T10:29:47.089Z,29.45
2022-09-05T10:35:19.676Z,29.57
2022-09-05T10:35:38.643Z,29.52
2022-09-05T10:38:17.877Z,29.46
2022-09-05T10:41:21.820Z,29.69
2022-09-05T10:43:49.152Z,29.78
2022-09-05T10:46:48.982Z,29.77
2022-09-05T10:49:17.934Z,29.92
2022-09-05T10:52:18.805Z,29.82
2022-09-05T10:55:17.998Z,30.18
2022-09-05T10:57:47.872Z,30.44
2022-09-05T11:02:20.818Z,30.62
2022-09-05T11:03:58.436Z,30.29
2022-09-05T11:06:49.760Z,30.46
2022-09-05T11:09:39.961Z,30.45
2022-09-05T11:12:26.538Z,30.61
2022-09-05T11:14:57.515Z,30.62
2022-09-05T11:17:54.443Z,30.75
2022-09-05T11:20:44.565Z,30.97
2022-09-05T11:23:18.460Z,31.23
2022-09-05T11:25:47.942Z,31.26
2022-09-05T11:28:24.930Z,31.09
2022-09-05T11:30:56.597Z,31.29
2022-09-05T11:36:57.883Z,31.38
2022-09-05T11:40:06.455Z,31.65
2022-09-05T11:40:29.151Z,31.73
2022-09-05T11:43:39.443Z,31.74
2022-09-05T11:46:25.011Z,31.78
2022-09-05T11:49:32.584Z,31.71
2022-09-05T11:52:29.298Z,31.88
2022-09-05T11:55:20.931Z,31.86
2022-09-05T11:58:43.611Z,31.85
2022-09-05T12:01:41.568Z,31.94
2022-09-05T12:04:27.803Z,32.00
2022-09-05T12:07:26.329Z,32.10
2022-09-05T12:10:46.475Z,31.87
2022-09-05T12:13:49.087Z,32.07
2022-09-05T12:16:42.789Z,32.05
2022-09-05T12:19:28.387Z,32.01
2022-09-05T12:22:23.623Z,32.30
2022-09-05T12:25:25.384Z,32.53
2022-09-05T12:27:47.514Z,32.49
2022-09-05T12:30:36.404Z,32.38
2022-09-05T12:39:52.191Z,32.26
2022-09-05T12:41:36.723Z,32.24
2022-09-05T12:44:06.037Z,32.75
2022-09-05T12:46:10.921Z,32.99
2022-09-05T12:49:00.355Z,32.67
2022-09-05T12:51:45.976Z,32.68
2022-09-05T12:54:34.260Z,32.77
2022-09-05T13:02:40.297Z,32.38
2022-09-05T13:02:59.553Z,31.95
2022-09-05T13:03:27.904Z,31.82
2022-09-05T13:05:59.463Z,31.49
2022-09-05T13:08:38.293Z,31.83
2022-09-05T13:14:26.354Z,32.02
2022-09-05T13:14:56.211Z,31.75
2022-09-05T13:16:56.234Z,31.94
2022-09-05T13:19:45.790Z,32.17
2022-09-05T13:22:16.661Z,32.20
2022-09-05T13:24:50.561Z,32.05
2022-09-05T13:27:36.111Z,32.20
2022-09-05T13:33:31.321Z,32.18
2022-09-05T13:37:59.738Z,32.56
2022-09-05T13:38:13.186Z,32.75
2022-09-05T13:39:28.294Z,32.39
2022-09-05T13:42:03.816Z,31.91
2022-09-05T13:44:43.137Z,31.95
2022-09-05T13:47:30.191Z,31.88
2022-09-05T13:50:21.921Z,31.73
2022-09-05T13:53:05.826Z,31.95
2022-09-05T13:55:38.744Z,31.95
2022-09-05T13:58:24.458Z,31.93
2022-09-05T14:01:05.334Z,32.11
2022-09-05T14:03:50.398Z,32.29
2022-09-05T14:06:47.057Z,32.72
2022-09-05T14:09:39.772Z,32.65
2022-09-05T14:12:36.919Z,32.21
2022-09-05T14:15:16.400Z,32.13
2022-09-05T14:18:20.100Z,31.96
2022-09-05T14:21:21.288Z,31.78
2022-09-05T14:23:56.850Z,31.83
2022-09-05T14:26:49.760Z,31.82
2022-09-05T14:29:56.809Z,31.89
2022-09-05T14:37:49.195Z,32.45
2022-09-05T14:37:51.089Z,32.17
2022-09-05T14:38:57.553Z,32.42
2022-09-05T14:41:39.979Z,32.52
2022-09-05T14:44:27.587Z,32.63
2022-09-05T14:47:06.523Z,32.65
2022-09-05T14:49:40.793Z,32.58
2022-09-05T14:52:35.457Z,32.39
2022-09-05T15:02:50.439Z,31.99
2022-09-05T15:02:57.790Z,32.15
2022-09-05T15:06:41.535Z,31.93
2022-09-05T15:11:25.521Z,32.15
2022-09-05T15:12:25.844Z,32.04
2022-09-05T15:15:07.660Z,32.23
2022-09-05T15:17:36.369Z,32.32
2022-09-05T15:20:08.300Z,32.64
2022-09-05T15:22:37.975Z,32.66
2022-09-05T15:25:16.915Z,32.64
2022-09-05T15:27:46.379Z,32.78
2022-09-05T15:30:36.595Z,32.80
2022-09-05T15:33:12.013Z,32.82
2022-09-05T15:35:43.623Z,33.18
2022-09-05T15:38:54.441Z,33.72
2022-09-05T15:41:24.655Z,34.37
2022-09-05T15:44:10.132Z,34.85
2022-09-05T15:46:53.266Z,35.37
2022-09-05T15:49:38.448Z,35.52
2022-09-05T15:52:29.311Z,35.52
2022-09-05T15:55:05.601Z,35.83
2022-09-05T15:57:35.882Z,36.30
2022-09-05T16:00:07.439Z,36.50
2022-09-05T16:02:39.593Z,36.73
2022-09-05T16:10:27.773Z,36.99
2022-09-05T16:10:38.521Z,37.01
2022-09-05T16:14:36.500Z,35.93
2022-09-05T16:23:14.996Z,34.85
2022-09-05T16:23:23.853Z,33.85
2022-09-05T16:23:42.066Z,33.47
2022-09-05T16:26:24.904Z,33.19
2022-09-05T16:29:06.053Z,32.69
2022-09-05T16:32:09.363Z,32.50
2022-09-05T16:34:43.592Z,32.03
2022-09-05T16:37:25.401Z,32.02
2022-09-05T16:40:14.399Z,31.83
2022-09-05T16:42:57.751Z,31.58
2022-09-05T16:45:47.350Z,31.27
2022-09-05T16:48:39.734Z,30.97
2022-09-05T16:51:36.365Z,30.86
2022-09-05T16:54:10.890Z,30.80
2022-09-05T16:56:47.962Z,30.76
2022-09-05T16:59:21.686Z,30.55
2022-09-05T17:02:25.961Z,30.57
2022-09-05T17:05:23.376Z,30.53
2022-09-05T17:08:12.871Z,30.47
2022-09-05T17:10:52.927Z,30.32
2022-09-05T17:13:31.168Z,30.21
2022-09-05T17:16:01.517Z,30.14
2022-09-05T17:18:35.507Z,30.05
2022-09-05T17:21:13.709Z,29.79
2022-09-05T17:29:23.322Z,29.85
2022-09-05T17:29:47.079Z,29.88
2022-09-05T17:31:23.728Z,29.78
2022-09-05T17:32:49.863Z,29.62
2022-09-05T17:35:54.827Z,29.59
2022-09-05T17:38:49.900Z,29.53
2022-09-05T17:41:51.934Z,29.47
2022-09-05T17:44:27.054Z,29.41
2022-09-05T17:47:17.405Z,29.40
2022-09-05T17:49:46.824Z,29.35
2022-09-05T17:52:19.192Z,29.37
2022-09-05T17:54:53.497Z,29.30
2022-09-05T17:57:29.137Z,29.24
2022-09-05T18:00:07.071Z,29.19
2022-09-05T18:02:56.159Z,29.07
2022-09-05T18:05:54.472Z,28.96
2022-09-05T18:08:56.723Z,28.95
2022-09-05T18:11:25.863Z,28.94
2022-09-05T18:13:54.760Z,28.78
2022-09-05T18:16:31.836Z,28.66
2022-09-05T18:19:31.899Z,28.65
2022-09-05T18:22:22.262Z,28.56
2022-09-05T18:25:28.137Z,28.45
2022-09-05T18:28:18.971Z,28.10
2022-09-05T18:30:45.725Z,28.26
2022-09-05T18:33:55.973Z,27.99
2022-09-05T18:36:25.448Z,28.17
2022-09-05T18:39:27.768Z,28.14
2022-09-05T18:42:25.624Z,27.95
2022-09-05T18:45:01.397Z,27.91
2022-09-05T18:47:53.163Z,28.00
2022-09-05T18:50:32.075Z,27.99
2022-09-05T18:53:10.616Z,28.00
2022-09-05T18:56:20.082Z,27.91
2022-09-05T18:59:15.640Z,27.94
2022-09-05T19:01:53.422Z,27.87
2022-09-05T19:04:44.928Z,27.78
2022-09-05T19:07:22.621Z,27.59
2022-09-05T19:10:35.652Z,27.61
2022-09-05T19:13:14.964Z,27.59
2022-09-05T19:15:50.033Z,27.60
2022-09-05T19:18:37.137Z,27.63
2022-09-05T19:21:12.109Z,27.61
2022-09-05T19:23:54.692Z,27.66
2022-09-05T19:26:22.739Z,27.63
2022-09-05T19:36:52.607Z,27.65
2022-09-05T19:36:59.991Z,27.52
2022-09-05T19:37:12.707Z,27.39
2022-09-05T19:37:48.885Z,27.30
2022-09-05T19:47:30.377Z,27.14
2022-09-05T19:47:43.030Z,26.95
2022-09-05T19:47:43.281Z,26.87
2022-09-05T19:49:07.166Z,26.66
2022-09-05T19:51:34.491Z,26.56
2022-09-05T19:54:04.405Z,26.63
2022-09-05T19:56:45.056Z,26.70
2022-09-05T19:59:34.397Z,26.61
2022-09-05T20:02:02.499Z,26.46
2022-09-05T20:04:46.936Z,26.51
2022-09-05T20:07:22.424Z,26.31
2022-09-05T20:09:51.091Z,26.25
2022-09-05T20:12:24.395Z,26.08
2022-09-05T20:14:51.638Z,26.08
2022-09-05T20:17:25.718Z,26.12
2022-09-05T20:20:12.633Z,25.99
2022-09-05T20:22:49.243Z,25.99
2022-09-05T20:25:34.998Z,26.01
2022-09-05T20:28:09.708Z,25.91
2022-09-05T20:30:41.333Z,25.82
2022-09-05T20:33:32.025Z,25.91
2022-09-05T20:40:59.655Z,25.95
2022-09-05T20:43:21.747Z,25.80
2022-09-05T20:43:25.328Z,25.66
2022-09-05T20:44:51.091Z,25.59
2022-09-05T20:52:08.861Z,25.50
2022-09-05T20:54:14.293Z,25.50
2022-09-05T20:54:21.533Z,25.31
2022-09-05T20:56:10.230Z,25.24
2022-09-05T20:58:38.946Z,25.23
2022-09-05T21:01:23.815Z,24.97
2022-09-05T21:03:56.411Z,25.07
2022-09-05T21:06:23.532Z,25.02
2022-09-05T21:08:52.437Z,24.90
2022-09-05T21:11:30.185Z,24.74
2022-09-05T21:14:01.407Z,24.68
2022-09-05T21:16:30.878Z,24.57
2022-09-05T21:18:58.641Z,24.62
2022-09-05T21:21:29.216Z,24.56
2022-09-05T21:24:15.878Z,24.48
2022-09-05T21:26:43.837Z,24.27
2022-09-05T21:29:18.912Z,24.24
2022-09-05T21:31:57.686Z,24.10
2022-09-05T21:34:28.867Z,23.97
2022-09-05T21:37:07.284Z,23.83
2022-09-05T21:39:38.109Z,23.87
2022-09-05T21:42:26.992Z,23.95
2022-09-05T21:47:43.758Z,23.78
2022-09-05T21:47:52.334Z,23.63
2022-09-05T21:50:31.222Z,23.50
2022-09-05T21:54:35.185Z,23.41
2022-09-05T21:59:25.915Z,23.34
2022-09-05T21:59:26.889Z,23.40
2022-09-05T22:01:48.704Z,23.39
2022-09-05T22:04:10.923Z,23.24
2022-09-05T22:06:37.442Z,23.18
2022-09-05T22:09:05.292Z,23.21
2022-09-05T22:11:40.788Z,23.25
2022-09-05T22:14:08.963Z,23.18
2022-09-05T22:16:40.049Z,23.20
2022-09-05T22:19:22.690Z,23.10
2022-09-05T22:21:53.441Z,22.93
2022-09-05T22:24:20.835Z,23.10
2022-09-05T22:27:11.371Z,23.13
2022-09-05T22:29:40.171Z,23.14
2022-09-05T22:32:07.436Z,23.00
2022-09-05T22:34:34.057Z,22.93
2022-09-05T22:37:00.597Z,22.93
2022-09-05T22:39:36.940Z,22.99
2022-09-05T22:42:10.322Z,22.99
2022-09-05T22:44:41.758Z,23.03
2022-09-05T22:47:09.978Z,23.10
2022-09-05T22:49:36.968Z,23.14
2022-09-05T22:52:08.352Z,23.22
2022-09-05T22:54:35.655Z,23.17
2022-09-05T22:57:03.983Z,23.07
2022-09-05T22:59:30.601Z,23.02
2022-09-05T23:01:57.284Z,22.98
2022-09-05T23:04:23.904Z,23.04
2022-09-05T23:06:50.576Z,23.08
2022-09-05T23:09:17.227Z,23.18
2022-09-05T23:11:46.853Z,23.25
2022-09-05T23:14:13.411Z,23.26
2022-09-05T23:16:40.046Z,23.22
2022-09-05T23:19:06.585Z,23.22
2022-09-05T23:21:34.412Z,23.25
2022-09-05T23:24:00.908Z,23.29
2022-09-05T23:26:27.606Z,23.28
2022-09-05T23:28:54.264Z,23.29
2022-09-05T23:31:21.031Z,23.25
2022-09-05T23:33:47.711Z,23.17
2022-09-05T23:36:14.509Z,23.20
2022-09-05T23:38:42.493Z,23.14
2022-09-05T23:41:12.045Z,23.10
2022-09-05T23:43:38.759Z,22.89
2022-09-05T23:46:05.602Z,22.54
2022-09-05T23:48:32.262Z,22.28
2022-09-05T23:51:05.503Z,22.24
2022-09-05T23:53:32.110Z,22.16
2022-09-05T23:56:07.049Z,22.19
2022-09-05T23:58:36.772Z,22.22
